Terminal Aerodrome Forecast
Issued by NWS

Home | Current Version | Previous Version | Text Only | Print | Product List | Glossary On
Versions: 1 2 3 4 5 6 7 8 9 10 11 12 13 14 15 16 17 18 19 20 21 22 23
000
FTUS43 KDLH 240328 AAC
TAFHIB
TAF AMD
KHIB 240328Z 2403/2424 01003KT P6SM -RA VCTS FEW010 BKN035CB
     FM240400 04005KT P6SM -SHRA VCTS OVC025CB
     FM240700 09005KT 4SM BR SCT004 OVC007
     FM241400 17007KT P6SM SCT007 SCT250=

USA.gov is the U.S. government's official web portal to all federal, state and local government web resources and services.